createdAt,value
2018-09-08T00:01:57.605Z,37.50
2018-09-08T00:04:25.289Z,37.50
2018-09-08T00:06:58.280Z,37.70
2018-09-08T00:09:25.995Z,37.60
2018-09-08T00:11:53.793Z,37.40
2018-09-08T00:14:21.440Z,37.50
2018-09-08T00:16:54.579Z,37.40
2018-09-08T00:19:27.832Z,37.50
2018-09-08T00:22:01.022Z,37.60
2018-09-08T00:24:34.194Z,37.40
2018-09-08T00:27:01.142Z,37.30
2018-09-08T00:30:35.081Z,37.40
2018-09-08T00:33:02.809Z,37.40
2018-09-08T00:35:30.404Z,37.30
2018-09-08T00:37:58.058Z,37.40
2018-09-08T00:40:25.764Z,37.20
2018-09-08T00:42:53.435Z,37.30
2018-09-08T00:45:21.115Z,37.50
2018-09-08T00:47:48.709Z,37.20
2018-09-08T00:50:16.372Z,37.10
2018-09-08T00:52:44.055Z,37.10
2018-09-08T00:55:11.673Z,36.80
2018-09-08T00:57:39.540Z,37.00
2018-09-08T01:00:07.196Z,37.00
2018-09-08T01:02:34.834Z,37.00
2018-09-08T01:05:02.454Z,37.40
2018-09-08T01:07:31.033Z,36.80
2018-09-08T01:09:59.838Z,36.80
2018-09-08T01:12:28.224Z,36.80
2018-09-08T01:14:55.852Z,36.70
2018-09-08T01:17:23.957Z,36.80
2018-09-08T01:19:51.620Z,36.70
2018-09-08T01:22:19.257Z,36.80
2018-09-08T01:24:46.840Z,36.70
2018-09-08T01:27:14.438Z,36.80
2018-09-08T01:29:42.141Z,36.70
2018-09-08T01:32:09.752Z,36.70
2018-09-08T01:34:37.416Z,36.70
2018-09-08T01:37:05.048Z,36.70
2018-09-08T01:39:32.715Z,36.70
2018-09-08T01:42:00.428Z,36.70
2018-09-08T01:44:28.046Z,36.70
2018-09-08T01:46:55.694Z,36.80
2018-09-08T01:49:23.332Z,36.70
2018-09-08T01:51:51.094Z,36.70
2018-09-08T01:54:19.272Z,36.70
2018-09-08T01:56:46.871Z,36.70
2018-09-08T01:59:14.516Z,36.70
2018-09-08T02:01:42.347Z,36.70
2018-09-08T02:04:10.060Z,36.70
2018-09-08T02:06:39.605Z,36.80
2018-09-08T02:09:07.276Z,36.70
2018-09-08T02:11:34.904Z,36.80
2018-09-08T02:14:02.620Z,36.70
2018-09-08T02:16:30.344Z,36.50
2018-09-08T02:18:58.009Z,36.70
2018-09-08T02:21:25.631Z,37.40
2018-09-08T02:23:53.349Z,36.80
2018-09-08T02:26:20.951Z,36.70
2018-09-08T02:28:48.637Z,36.80
2018-09-08T02:31:16.246Z,36.70
2018-09-08T02:33:44.020Z,36.70
2018-09-08T02:36:11.686Z,36.70
2018-09-08T02:38:39.317Z,37.40
2018-09-08T02:41:07.121Z,36.70
2018-09-08T02:43:34.899Z,36.80
2018-09-08T02:46:02.589Z,36.70
2018-09-08T02:48:30.211Z,36.70
2018-09-08T02:50:57.301Z,36.70
2018-09-08T02:53:24.453Z,36.70
2018-09-08T02:55:51.599Z,36.40
2018-09-08T02:58:18.694Z,36.70
2018-09-08T03:00:45.757Z,36.70
2018-09-08T03:03:12.831Z,36.70
2018-09-08T03:05:39.917Z,36.70
2018-09-08T03:08:07.055Z,36.70
2018-09-08T03:10:34.192Z,36.70
2018-09-08T03:13:01.293Z,36.70
2018-09-08T03:15:28.383Z,36.70
2018-09-08T03:17:55.559Z,36.70
2018-09-08T03:20:22.643Z,36.80
2018-09-08T03:22:49.739Z,36.80
2018-09-08T03:25:16.834Z,36.70
2018-09-08T03:27:43.913Z,36.80
2018-09-08T03:30:10.987Z,36.70
2018-09-08T03:32:38.080Z,36.70
2018-09-08T03:35:05.202Z,37.50
2018-09-08T03:37:32.284Z,36.70
2018-09-08T03:39:59.397Z,36.80
2018-09-08T03:42:26.472Z,36.70
2018-09-08T03:44:53.541Z,36.70
2018-09-08T03:47:20.654Z,36.70
2018-09-08T03:49:47.785Z,36.70
2018-09-08T03:52:14.881Z,36.70
2018-09-08T03:54:41.985Z,36.80
2018-09-08T03:57:09.069Z,36.70
2018-09-08T03:59:36.175Z,36.80
2018-09-08T04:02:03.271Z,36.70
2018-09-08T04:04:30.900Z,36.70
2018-09-08T04:06:58.562Z,36.70
2018-09-08T04:09:26.175Z,36.70
2018-09-08T04:11:53.803Z,36.70
2018-09-08T04:14:21.445Z,36.70
2018-09-08T04:16:49.093Z,36.70
2018-09-08T04:19:16.761Z,36.70
2018-09-08T04:21:44.399Z,36.70
2018-09-08T04:24:12.080Z,36.70
2018-09-08T04:26:39.703Z,36.70
2018-09-08T04:29:07.333Z,36.70
2018-09-08T04:31:35.026Z,36.70
2018-09-08T04:34:02.676Z,36.70
2018-09-08T04:36:30.358Z,36.70
2018-09-08T04:38:58.017Z,36.70
2018-09-08T04:41:25.761Z,36.70
2018-09-08T04:43:53.405Z,36.70
2018-09-08T04:46:21.139Z,36.70
2018-09-08T04:48:48.795Z,36.70
2018-09-08T04:51:16.551Z,36.70
2018-09-08T04:53:44.259Z,36.90
2018-09-08T04:56:11.959Z,36.70
2018-09-08T04:58:39.635Z,36.70
2018-09-08T05:01:07.267Z,36.70
2018-09-08T05:03:34.934Z,36.70
2018-09-08T05:06:02.575Z,36.70
2018-09-08T05:08:30.238Z,36.70
2018-09-08T05:10:57.947Z,36.70
2018-09-08T05:13:25.658Z,36.70
2018-09-08T05:15:53.468Z,37.40
2018-09-08T05:18:21.137Z,36.70
2018-09-08T05:20:48.759Z,36.70
2018-09-08T05:23:16.436Z,36.70
2018-09-08T05:25:44.064Z,36.70
2018-09-08T05:28:11.753Z,36.70
2018-09-08T05:30:39.396Z,36.70
2018-09-08T05:33:07.054Z,36.70
2018-09-08T05:35:34.706Z,36.70
2018-09-08T05:38:02.434Z,36.70
2018-09-08T05:40:30.170Z,36.70
2018-09-08T05:42:57.908Z,36.70
2018-09-08T05:45:25.530Z,36.70
2018-09-08T05:47:53.200Z,36.70
2018-09-08T05:50:20.842Z,36.70
2018-09-08T05:52:48.481Z,36.70
2018-09-08T05:55:16.113Z,36.70
2018-09-08T05:57:43.869Z,36.70
2018-09-08T06:00:11.520Z,36.70
2018-09-08T06:02:39.273Z,36.70
2018-09-08T06:05:06.924Z,36.70
2018-09-08T06:07:34.601Z,36.70
2018-09-08T06:10:02.278Z,36.70
2018-09-08T06:12:29.948Z,36.70
2018-09-08T06:14:57.590Z,36.70
2018-09-08T06:17:25.338Z,36.70
2018-09-08T06:19:52.953Z,36.70
2018-09-08T06:22:20.658Z,36.70
2018-09-08T06:24:48.342Z,36.70
2018-09-08T06:27:16.020Z,36.00
2018-09-08T06:29:43.676Z,36.70
2018-09-08T06:32:11.456Z,36.70
2018-09-08T06:34:39.064Z,36.70
2018-09-08T06:37:06.681Z,36.70
2018-09-08T06:39:34.348Z,36.70
2018-09-08T06:42:01.979Z,36.70
2018-09-08T06:44:29.610Z,36.70
2018-09-08T06:46:57.237Z,36.70
2018-09-08T06:49:24.959Z,36.70
2018-09-08T06:51:52.795Z,36.70
2018-09-08T06:54:20.400Z,36.70
2018-09-08T06:56:48.014Z,36.70
2018-09-08T06:59:15.716Z,36.70
2018-09-08T07:01:43.441Z,36.70
2018-09-08T07:04:11.164Z,36.70
2018-09-08T07:06:38.956Z,36.70
2018-09-08T07:09:07.814Z,36.70
2018-09-08T07:11:35.506Z,36.70
2018-09-08T07:14:03.320Z,36.70
2018-09-08T07:16:30.924Z,36.70
2018-09-08T07:18:58.672Z,36.70
2018-09-08T07:21:26.318Z,36.70
2018-09-08T07:23:53.962Z,36.70
2018-09-08T07:26:21.760Z,36.70
2018-09-08T07:28:49.632Z,36.70
2018-09-08T07:31:17.332Z,36.70
2018-09-08T07:33:45.105Z,36.70
2018-09-08T07:36:12.748Z,36.70
2018-09-08T07:38:40.432Z,36.70
2018-09-08T07:41:08.083Z,36.70
2018-09-08T07:43:35.747Z,36.70
2018-09-08T07:46:03.507Z,36.70
2018-09-08T07:48:31.126Z,36.70
2018-09-08T07:50:58.770Z,36.70
2018-09-08T07:53:27.563Z,36.70
2018-09-08T07:55:55.127Z,36.70
2018-09-08T07:58:22.864Z,36.80
2018-09-08T08:00:50.915Z,36.70
2018-09-08T08:03:18.536Z,36.70
2018-09-08T08:05:46.156Z,36.70
2018-09-08T08:08:13.960Z,36.70
2018-09-08T08:10:41.628Z,36.80
2018-09-08T08:13:09.214Z,36.70
2018-09-08T08:15:37.062Z,36.70
2018-09-08T08:18:04.845Z,36.70
2018-09-08T08:20:32.501Z,36.70
2018-09-08T08:23:00.176Z,36.70
2018-09-08T08:25:27.829Z,36.70
2018-09-08T08:27:55.552Z,36.70
2018-09-08T08:30:23.194Z,36.70
2018-09-08T08:32:50.840Z,36.70
2018-09-08T08:35:18.537Z,36.70
2018-09-08T08:37:46.156Z,36.80
2018-09-08T08:40:13.803Z,36.70
2018-09-08T08:42:41.457Z,36.70
2018-09-08T08:45:09.068Z,36.70
2018-09-08T08:47:36.695Z,36.70
2018-09-08T08:50:09.899Z,36.70
2018-09-08T08:52:43.316Z,36.70
2018-09-08T08:55:10.537Z,36.70
2018-09-08T08:57:38.171Z,36.70
2018-09-08T09:00:05.827Z,36.70
2018-09-08T09:02:33.471Z,36.90
2018-09-08T09:05:01.130Z,36.80
2018-09-08T09:07:28.765Z,36.70
2018-09-08T09:09:56.446Z,36.80
2018-09-08T09:12:24.093Z,36.80
2018-09-08T09:14:51.729Z,36.80
2018-09-08T09:17:19.397Z,36.70
2018-09-08T09:19:52.591Z,36.40
2018-09-08T09:22:27.166Z,36.30
2018-09-08T09:25:02.382Z,36.80
2018-09-08T09:27:31.285Z,36.50
2018-09-08T09:29:59.415Z,36.70
2018-09-08T09:32:27.065Z,36.60
2018-09-08T09:34:54.724Z,36.50
2018-09-08T09:37:22.472Z,36.60
2018-09-08T09:39:50.874Z,36.20
2018-09-08T09:42:18.572Z,36.20
2018-09-08T09:44:46.205Z,36.20
2018-09-08T09:47:13.883Z,35.70
2018-09-08T09:49:41.550Z,35.90
2018-09-08T09:52:09.357Z,35.90
2018-09-08T09:54:37.009Z,35.60
2018-09-08T09:57:04.686Z,35.50
2018-09-08T09:59:32.322Z,35.50
2018-09-08T10:02:05.335Z,35.70
2018-09-08T10:04:32.966Z,35.50
2018-09-08T10:07:00.558Z,35.30
2018-09-08T10:09:28.458Z,35.30
2018-09-08T10:11:56.188Z,35.30
2018-09-08T10:14:23.906Z,35.20
2018-09-08T10:16:51.525Z,35.20
2018-09-08T10:19:19.168Z,35.10
2018-09-08T10:21:46.803Z,35.10
2018-09-08T10:24:14.440Z,35.30
2018-09-08T10:26:42.087Z,35.20
2018-09-08T10:29:09.726Z,35.10
2018-09-08T10:31:37.369Z,35.20
2018-09-08T10:34:04.976Z,35.10
2018-09-08T10:36:32.595Z,35.20
2018-09-08T10:39:00.225Z,35.10
2018-09-08T10:41:27.976Z,35.10
2018-09-08T10:43:55.726Z,35.00
2018-09-08T10:46:23.351Z,35.10
2018-09-08T10:48:51.049Z,35.10
2018-09-08T10:51:31.570Z,35.10
2018-09-08T10:53:59.168Z,35.00
2018-09-08T10:56:26.854Z,35.10
2018-09-08T10:58:54.497Z,34.90
2018-09-08T11:01:22.329Z,34.80
2018-09-08T11:03:49.965Z,34.80
2018-09-08T11:06:17.781Z,35.00
2018-09-08T11:08:45.424Z,35.00
2018-09-08T11:11:13.019Z,34.90
2018-09-08T11:13:40.689Z,34.70
2018-09-08T11:16:08.421Z,34.70
2018-09-08T11:18:36.081Z,34.70
2018-09-08T11:21:03.721Z,34.70
2018-09-08T11:23:31.348Z,34.70
2018-09-08T11:25:59.688Z,34.80
2018-09-08T11:28:27.381Z,34.60
2018-09-08T11:30:55.098Z,34.60
2018-09-08T11:33:22.739Z,34.60
2018-09-08T11:35:50.415Z,34.60
2018-09-08T11:38:18.246Z,34.60
2018-09-08T11:40:45.772Z,34.60
2018-09-08T11:43:13.438Z,34.80
2018-09-08T11:45:41.077Z,34.50
2018-09-08T11:48:08.759Z,34.60
2018-09-08T11:50:36.557Z,34.60
2018-09-08T11:53:04.318Z,34.60
2018-09-08T11:55:31.938Z,34.40
2018-09-08T11:57:59.749Z,34.40
2018-09-08T12:00:27.367Z,34.40
2018-09-08T12:02:55.083Z,34.40
2018-09-08T12:05:22.752Z,34.40
2018-09-08T12:07:50.416Z,34.40
2018-09-08T12:10:18.109Z,34.50
2018-09-08T12:12:45.768Z,34.70
2018-09-08T12:15:13.423Z,34.50
2018-09-08T12:17:41.081Z,34.50
2018-09-08T12:20:08.829Z,34.60
2018-09-08T12:22:36.528Z,34.40
2018-09-08T12:25:04.156Z,34.50
2018-09-08T12:27:32.048Z,34.50
2018-09-08T12:29:59.692Z,34.40
2018-09-08T12:32:27.418Z,34.40
2018-09-08T12:34:55.158Z,34.50
2018-09-08T12:37:22.794Z,34.50
2018-09-08T12:39:50.453Z,34.50
2018-09-08T12:42:18.141Z,34.50
2018-09-08T12:44:45.804Z,34.50
2018-09-08T12:47:13.528Z,34.40
2018-09-08T12:49:41.197Z,34.40
2018-09-08T12:52:08.906Z,34.40
2018-09-08T12:54:36.665Z,34.40
2018-09-08T12:57:04.379Z,34.40
2018-09-08T12:59:32.176Z,34.30
2018-09-08T13:01:59.803Z,34.30
2018-09-08T13:04:27.556Z,34.30
2018-09-08T13:06:55.303Z,34.20
2018-09-08T13:09:22.975Z,33.50
2018-09-08T13:11:50.659Z,34.10
2018-09-08T13:14:18.415Z,34.20
2018-09-08T13:16:46.009Z,34.10
2018-09-08T13:19:13.739Z,34.00
2018-09-08T13:21:41.394Z,34.00
2018-09-08T13:24:09.185Z,34.70
2018-09-08T13:26:36.745Z,34.00
2018-09-08T13:29:04.394Z,33.70
2018-09-08T13:31:31.977Z,33.50
2018-09-08T13:33:59.640Z,33.50
2018-09-08T13:36:27.292Z,33.50
2018-09-08T13:38:54.966Z,33.70
2018-09-08T13:41:22.690Z,33.70
2018-09-08T13:43:50.363Z,33.30
2018-09-08T13:46:18.147Z,33.70
2018-09-08T13:48:45.796Z,33.70
2018-09-08T13:51:13.468Z,33.90
2018-09-08T13:53:41.153Z,33.50
2018-09-08T13:56:08.858Z,33.70
2018-09-08T13:58:36.535Z,33.40
2018-09-08T14:01:04.146Z,33.50
2018-09-08T14:03:31.810Z,33.00
2018-09-08T14:05:59.521Z,33.20
2018-09-08T14:08:27.146Z,33.10
2018-09-08T14:10:54.779Z,32.50
2018-09-08T14:13:22.543Z,32.10
2018-09-08T14:15:50.257Z,32.10
2018-09-08T14:18:17.930Z,31.80
2018-09-08T14:20:45.540Z,31.80
2018-09-08T14:23:13.208Z,32.20
2018-09-08T14:25:40.832Z,31.00
2018-09-08T14:28:08.514Z,31.10
2018-09-08T14:30:36.230Z,31.10
2018-09-08T14:33:03.900Z,31.10
2018-09-08T14:35:31.536Z,31.10
2018-09-08T14:37:59.354Z,31.30
2018-09-08T14:40:27.339Z,31.10
2018-09-08T14:42:55.097Z,31.10
2018-09-08T14:45:22.766Z,31.10
2018-09-08T14:47:50.468Z,31.10
2018-09-08T14:54:54.423Z,31.10
2018-09-08T14:57:22.070Z,31.10
2018-09-08T14:59:49.745Z,31.10
2018-09-08T15:02:17.411Z,31.10
2018-09-08T15:04:45.158Z,31.10
2018-09-08T15:07:12.776Z,31.10
2018-09-08T15:09:40.422Z,31.10
2018-09-08T15:12:08.468Z,31.10
2018-09-08T15:14:36.242Z,31.20
2018-09-08T15:17:04.240Z,31.20
2018-09-08T15:19:33.532Z,31.10
2018-09-08T15:22:01.130Z,31.10
2018-09-08T15:24:28.878Z,31.20
2018-09-08T15:26:56.548Z,31.20
2018-09-08T15:29:24.192Z,31.10
2018-09-08T15:31:51.870Z,31.20
2018-09-08T15:34:19.500Z,31.20
2018-09-08T15:36:47.138Z,31.20
2018-09-08T15:39:14.921Z,31.20
2018-09-08T15:41:42.568Z,31.20
2018-09-08T15:44:10.310Z,31.20
2018-09-08T15:46:37.951Z,31.20
2018-09-08T15:49:05.595Z,31.20
2018-09-08T15:51:33.293Z,31.20
2018-09-08T15:54:00.910Z,31.20
2018-09-08T15:56:28.596Z,31.20
2018-09-08T15:58:56.240Z,31.20
2018-09-08T16:01:23.929Z,31.20
2018-09-08T16:03:51.622Z,31.20
2018-09-08T16:06:19.358Z,31.10
2018-09-08T16:08:47.026Z,31.10
2018-09-08T16:11:14.714Z,31.10
2018-09-08T16:13:42.384Z,31.10
2018-09-08T16:16:10.062Z,31.10
2018-09-08T16:18:37.714Z,31.00
2018-09-08T16:21:05.653Z,31.00
2018-09-08T16:23:33.301Z,31.00
2018-09-08T16:26:00.997Z,31.00
2018-09-08T16:28:28.620Z,31.00
2018-09-08T16:30:56.261Z,31.10
2018-09-08T16:33:23.952Z,31.00
2018-09-08T16:35:51.584Z,31.00
2018-09-08T16:38:19.219Z,31.00
2018-09-08T16:40:46.886Z,31.00
2018-09-08T16:43:16.662Z,31.00
2018-09-08T16:45:44.315Z,31.00
2018-09-08T16:48:12.089Z,31.00
2018-09-08T16:50:39.752Z,31.00
2018-09-08T16:53:07.400Z,31.10
2018-09-08T16:55:35.040Z,30.40
2018-09-08T16:58:02.679Z,31.00
2018-09-08T17:00:30.378Z,31.00
2018-09-08T17:02:57.962Z,31.00
2018-09-08T17:05:25.718Z,31.00
2018-09-08T17:07:53.346Z,31.10
2018-09-08T17:10:21.078Z,31.00
2018-09-08T17:12:48.700Z,31.00
2018-09-08T17:15:16.350Z,31.00
2018-09-08T17:17:44.040Z,31.00
2018-09-08T17:20:11.830Z,31.00
2018-09-08T17:22:39.587Z,31.00
2018-09-08T17:25:07.241Z,31.00
2018-09-08T17:27:34.909Z,31.10
2018-09-08T17:30:02.602Z,31.00
2018-09-08T17:32:30.244Z,31.00
2018-09-08T17:34:57.904Z,31.00
2018-09-08T17:37:25.635Z,31.00
2018-09-08T17:39:53.275Z,31.00
2018-09-08T17:42:20.870Z,31.00
2018-09-08T17:44:48.520Z,31.00
2018-09-08T17:47:16.168Z,31.00
2018-09-08T17:49:43.830Z,31.10
2018-09-08T17:52:11.567Z,31.00
2018-09-08T17:54:39.211Z,31.00
2018-09-08T17:57:06.865Z,31.00
2018-09-08T17:59:34.536Z,31.00
2018-09-08T18:02:02.230Z,31.00
2018-09-08T18:04:29.912Z,31.00
2018-09-08T18:06:57.591Z,31.00
2018-09-08T18:09:25.332Z,31.10
2018-09-08T18:11:53.112Z,31.00
2018-09-08T18:14:20.681Z,31.10
2018-09-08T18:16:48.343Z,31.00
2018-09-08T18:19:16.112Z,31.00
2018-09-08T18:21:43.753Z,31.00
2018-09-08T18:24:11.822Z,31.00
2018-09-08T18:26:39.941Z,31.10
2018-09-08T18:29:07.639Z,31.00
2018-09-08T18:31:35.341Z,31.00
2018-09-08T18:34:03.072Z,31.00
2018-09-08T18:36:30.717Z,31.00
2018-09-08T18:38:58.452Z,31.00
2018-09-08T18:41:26.190Z,31.00
2018-09-08T18:43:53.763Z,31.00
2018-09-08T18:46:21.707Z,31.00
2018-09-08T18:48:49.345Z,31.00
2018-09-08T18:51:17.004Z,31.10
2018-09-08T18:53:44.671Z,31.00
2018-09-08T18:56:12.343Z,31.00
2018-09-08T18:58:40.000Z,31.10
2018-09-08T19:01:07.641Z,31.00
2018-09-08T19:03:35.281Z,31.00
2018-09-08T19:06:03.004Z,31.00
2018-09-08T19:08:36.074Z,31.00
2018-09-08T19:11:03.732Z,31.10
2018-09-08T19:13:31.509Z,31.00
2018-09-08T19:15:59.189Z,31.10
2018-09-08T19:18:26.886Z,31.40
2018-09-08T19:20:54.600Z,31.00
2018-09-08T19:23:22.207Z,31.00
2018-09-08T19:25:49.855Z,31.00
2018-09-08T19:28:19.651Z,31.00
2018-09-08T19:30:47.505Z,31.00
2018-09-08T19:33:15.185Z,31.00
2018-09-08T19:35:42.845Z,31.00
2018-09-08T19:38:10.455Z,31.00
2018-09-08T19:40:43.611Z,31.00
2018-09-08T19:43:11.354Z,31.00
2018-09-08T19:45:39.008Z,31.00
2018-09-08T19:48:09.296Z,31.00
2018-09-08T19:50:36.969Z,31.00
2018-09-08T19:53:10.015Z,31.00
2018-09-08T19:55:37.765Z,31.60
2018-09-08T19:58:10.921Z,31.00
2018-09-08T20:00:39.270Z,31.00
2018-09-08T20:03:06.905Z,31.00
2018-09-08T20:05:34.566Z,31.00
2018-09-08T20:08:02.302Z,31.00
2018-09-08T20:10:30.096Z,31.00
2018-09-08T20:12:57.705Z,31.00
2018-09-08T20:15:25.528Z,31.00
2018-09-08T20:17:53.259Z,31.00
2018-09-08T20:20:21.141Z,31.00
2018-09-08T20:22:49.129Z,31.00
2018-09-08T20:25:16.805Z,31.00
2018-09-08T20:27:45.539Z,31.00
2018-09-08T20:30:13.213Z,31.00
2018-09-08T20:32:40.803Z,31.60
2018-09-08T20:35:08.507Z,31.00
2018-09-08T20:37:36.096Z,31.00
2018-09-08T20:40:03.963Z,31.00
2018-09-08T20:42:31.729Z,31.00
2018-09-08T20:44:59.414Z,31.00
2018-09-08T20:47:27.038Z,31.00
2018-09-08T20:49:54.674Z,31.00
2018-09-08T20:52:22.342Z,31.00
2018-09-08T20:54:50.145Z,31.00
2018-09-08T20:57:17.791Z,31.00
2018-09-08T20:59:45.631Z,31.00
2018-09-08T21:02:13.301Z,31.00
2018-09-08T21:04:40.921Z,31.00
2018-09-08T21:07:09.694Z,31.00
2018-09-08T21:09:37.617Z,31.00
2018-09-08T21:12:05.486Z,31.00
2018-09-08T21:14:33.220Z,31.00
2018-09-08T21:17:00.922Z,31.00
2018-09-08T21:19:28.712Z,31.00
2018-09-08T21:21:56.574Z,31.70
2018-09-08T21:24:24.264Z,31.00
2018-09-08T21:26:52.029Z,31.00
2018-09-08T21:29:19.650Z,31.00
2018-09-08T21:31:47.321Z,31.00
2018-09-08T21:34:15.171Z,31.00
2018-09-08T21:36:42.885Z,31.00
2018-09-08T21:39:10.727Z,31.00
2018-09-08T21:41:39.344Z,31.00
2018-09-08T21:44:13.575Z,31.00
2018-09-08T21:46:41.239Z,31.00
2018-09-08T21:49:08.862Z,31.00
2018-09-08T21:51:36.519Z,31.00
2018-09-08T21:54:04.395Z,31.00
2018-09-08T21:56:32.136Z,31.00
2018-09-08T21:58:59.801Z,31.00
2018-09-08T22:01:28.275Z,31.00
2018-09-08T22:03:56.461Z,31.00
2018-09-08T22:06:25.121Z,31.00
2018-09-08T22:08:52.867Z,31.00
2018-09-08T22:11:20.529Z,30.90
2018-09-08T22:13:48.153Z,31.00
2018-09-08T22:16:16.097Z,31.00
2018-09-08T22:18:43.766Z,31.00
2018-09-08T22:21:11.431Z,31.00
2018-09-08T22:23:39.081Z,31.00
2018-09-08T22:26:06.883Z,31.00
2018-09-08T22:28:34.537Z,31.00
2018-09-08T22:31:02.260Z,30.90
2018-09-08T22:33:29.993Z,31.00
2018-09-08T22:35:57.807Z,31.00
2018-09-08T22:38:25.462Z,31.00
2018-09-08T22:40:53.163Z,30.90
2018-09-08T22:43:20.844Z,30.90
2018-09-08T22:45:50.114Z,31.00
2018-09-08T22:48:17.816Z,30.90
2018-09-08T22:50:45.461Z,30.90
2018-09-08T22:53:13.137Z,30.90
2018-09-08T22:55:40.762Z,30.90
2018-09-08T22:58:09.220Z,30.90
2018-09-08T23:00:37.095Z,30.90
2018-09-08T23:03:04.867Z,30.90
2018-09-08T23:05:32.525Z,30.90
2018-09-08T23:08:00.297Z,30.90
2018-09-08T23:10:28.037Z,30.90
2018-09-08T23:12:55.783Z,30.90
2018-09-08T23:15:23.429Z,30.90
2018-09-08T23:17:51.125Z,30.90
2018-09-08T23:20:18.793Z,30.90
2018-09-08T23:22:46.421Z,30.90
2018-09-08T23:25:14.067Z,30.90
2018-09-08T23:27:41.691Z,30.20
2018-09-08T23:30:09.355Z,30.90
2018-09-08T23:32:37.111Z,30.90
2018-09-08T23:35:04.779Z,30.90
2018-09-08T23:37:32.402Z,30.90
2018-09-08T23:40:00.050Z,30.90
2018-09-08T23:42:27.722Z,30.90
2018-09-08T23:44:55.399Z,30.90
2018-09-08T23:47:23.059Z,30.90
2018-09-08T23:49:50.695Z,30.90
2018-09-08T23:52:18.350Z,30.90
2018-09-08T23:54:46.072Z,30.90
2018-09-08T23:57:13.804Z,30.90
2018-09-08T23:59:41.470Z,30.90
